Liberal Mid-America Regional Airport
KLBL : rendu visible

Aérodrome :











RETROUVEZ-NOUS SUR...

 
LOGIN :

S'inscrire | Disclaimer

   EN    FR    IT 

 









Légende :    VFR   VFR Marginal   IFR   IFR Intensif   IFR Très Intensif
Visi : 
Plafond : 
>= 8 km
>= 3000ft
5 à 8 km
1000 à 3000 ft
1500m à 5 km
500 à 1000 ft
800 à 1500m
200 à 500 ft
< 800m
< 200 ft
Symboles :   Orages  Brouillard  Fortes neiges  Fortes précipitations  Vent > 20 kt







- Altitude de l'aérodrome : 2885 ft
- Code IATA : LBL


KLBL - Liberal Mid-America Regional

DERNIER METAR :
  • 250456Z AUTO 15010KT 10SM CLR 24/19 A2994 RMK AO2 SLP105 T02390194 403000156

METARs EXPIRÉS :
  • 250356Z AUTO 14006KT 10SM CLR 24/19 A2996 RMK AO2 WSHFT 0249 LTG DSNT N RAE18 SLP114 P0000 T02440194
  • 250309Z AUTO 11011G18KT 10SM -RA FEW060 BKN110 24/19 A2993 RMK AO2 WSHFT 0249 P0000
  • 250256Z AUTO 09012KT 10SM -RA FEW090 SCT110 25/19 A2998 RMK AO2 LTG DSNT NE RAB55 SLP121 P0000 60000 T02500194 53012

TAF KLBL
Valide du 25 à 06h jusqu'au 26 à 06h UTC


250532Z 2506/2606 15010KT P6SM SKC
Pas de NOTAMs connus pour ce terrain.



MET'MAP, la Météo Aéronautique d'un coup d'oeil ! - Copyright ORBIFLY Décembre 2007 - Disclaimer

ORBIFLY MET'MAP TEAM :

Programmation & Développement : Alexandra Zaïnal
Conception & Développement : Baudouin d'Aumeries
Co-Programmation & Développement : Marc-Olivier Méhu
Soutien technique & logistique : Manuel Goepfert

Contact : metmap@orbifly.com




SOURCES & CREDITS :

   NOAA       Earth
Advisory